sensor_id;sensor_type;location;lat;lon;timestamp;pressure;altitude;pressure_sealevel;temperature;humidity
61537;BME280;48695;53.480;-6.300;2024-02-26T00:02:14;100345.91;;;6.93;67.97
61537;BME280;48695;53.480;-6.300;2024-02-26T00:04:40;100324.50;;;6.78;68.22
61537;BME280;48695;53.480;-6.300;2024-02-26T00:07:05;100359.81;;;6.89;68.65
61537;BME280;48695;53.480;-6.300;2024-02-26T00:09:30;100353.00;;;6.79;67.94
61537;BME280;48695;53.480;-6.300;2024-02-26T00:11:56;100367.69;;;6.85;68.66
61537;BME280;48695;53.480;-6.300;2024-02-26T00:14:23;100371.97;;;6.84;68.57
61537;BME280;48695;53.480;-6.300;2024-02-26T00:16:48;100371.19;;;6.81;68.49
61537;BME280;48695;53.480;-6.300;2024-02-26T00:19:14;100377.16;;;6.84;68.54
61537;BME280;48695;53.480;-6.300;2024-02-26T00:21:42;100378.03;;;6.86;68.35
61537;BME280;48695;53.480;-6.300;2024-02-26T00:24:07;100379.75;;;6.86;68.49
61537;BME280;48695;53.480;-6.300;2024-02-26T00:26:33;100390.13;;;6.87;68.94
61537;BME280;48695;53.480;-6.300;2024-02-26T00:28:58;100389.22;;;6.88;68.89
61537;BME280;48695;53.480;-6.300;2024-02-26T00:31:24;100401.34;;;6.91;68.83
61537;BME280;48695;53.480;-6.300;2024-02-26T00:33:49;100409.13;;;6.91;68.68
61537;BME280;48695;53.480;-6.300;2024-02-26T00:36:15;100409.91;;;6.94;69.17
61537;BME280;48695;53.480;-6.300;2024-02-26T00:38:40;100412.50;;;6.96;68.84
61537;BME280;48695;53.480;-6.300;2024-02-26T00:41:06;100415.97;;;6.96;68.82
61537;BME280;48695;53.480;-6.300;2024-02-26T00:43:31;100420.28;;;6.97;68.56
61537;BME280;48695;53.480;-6.300;2024-02-26T00:45:57;100427.19;;;6.98;69.11
61537;BME280;48695;53.480;-6.300;2024-02-26T00:48:22;100428.91;;;6.98;68.86
61537;BME280;48695;53.480;-6.300;2024-02-26T00:50:47;100438.44;;;6.97;68.92
61537;BME280;48695;53.480;-6.300;2024-02-26T00:53:13;100441.94;;;6.96;68.33
61537;BME280;48695;53.480;-6.300;2024-02-26T00:55:38;100453.19;;;6.95;68.49
61537;BME280;48695;53.480;-6.300;2024-02-26T00:58:04;100456.66;;;6.93;68.37
61537;BME280;48695;53.480;-6.300;2024-02-26T01:00:29;100465.38;;;6.90;68.68
61537;BME280;48695;53.480;-6.300;2024-02-26T01:02:54;100467.97;;;6.87;68.73
61537;BME280;48695;53.480;-6.300;2024-02-26T01:05:20;100470.59;;;6.84;68.80
61537;BME280;48695;53.480;-6.300;2024-02-26T01:07:45;100479.28;;;6.83;68.79
61537;BME280;48695;53.480;-6.300;2024-02-26T01:10:11;100477.56;;;6.82;68.99
61537;BME280;48695;53.480;-6.300;2024-02-26T01:12:36;100487.09;;;6.82;68.61
61537;BME280;48695;53.480;-6.300;2024-02-26T01:15:02;100484.59;;;6.71;68.61
61537;BME280;48695;53.480;-6.300;2024-02-26T01:17:30;100489.78;;;6.71;68.46
61537;BME280;48695;53.480;-6.300;2024-02-26T01:19:56;100508.72;;;6.79;68.81
61537;BME280;48695;53.480;-6.300;2024-02-26T01:22:21;100512.19;;;6.78;68.95
61537;BME280;48695;53.480;-6.300;2024-02-26T01:24:47;100525.19;;;6.76;68.62
61537;BME280;48695;53.480;-6.300;2024-02-26T01:27:12;100526.06;;;6.74;69.11
61537;BME280;48695;53.480;-6.300;2024-02-26T01:29:39;100527.84;;;6.69;69.23
61537;BME280;48695;53.480;-6.300;2024-02-26T01:32:05;100529.59;;;6.70;69.08
61537;BME280;48695;53.480;-6.300;2024-02-26T01:34:31;100540.88;;;6.66;68.69
61537;BME280;48695;53.480;-6.300;2024-02-26T01:36:56;100546.94;;;6.63;69.02
61537;BME280;48695;53.480;-6.300;2024-02-26T01:39:22;100543.56;;;6.55;68.51
61537;BME280;48695;53.480;-6.300;2024-02-26T01:41:47;100564.31;;;6.57;68.49
61537;BME280;48695;53.480;-6.300;2024-02-26T01:44:13;100557.41;;;6.53;68.57
61537;BME280;48695;53.480;-6.300;2024-02-26T01:46:39;100575.59;;;6.48;68.47
61537;BME280;48695;53.480;-6.300;2024-02-26T01:49:04;100581.72;;;6.44;68.80
61537;BME280;48695;53.480;-6.300;2024-02-26T01:51:32;100590.38;;;6.41;68.53
61537;BME280;48695;53.480;-6.300;2024-02-26T01:53:58;100605.09;;;6.39;67.80
61537;BME280;48695;53.480;-6.300;2024-02-26T01:56:25;100608.59;;;6.34;68.61
61537;BME280;48695;53.480;-6.300;2024-02-26T01:58:56;100612.06;;;6.31;68.73
61537;BME280;48695;53.480;-6.300;2024-02-26T02:01:22;100619.03;;;6.20;68.98
61537;BME280;48695;53.480;-6.300;2024-02-26T02:03:50;100631.13;;;6.22;68.87
61537;BME280;48695;53.480;-6.300;2024-02-26T02:06:16;100632.00;;;6.20;69.22
61537;BME280;48695;53.480;-6.300;2024-02-26T02:08:41;100647.56;;;6.17;69.22
61537;BME280;48695;53.480;-6.300;2024-02-26T02:11:07;100654.50;;;6.15;68.79
61537;BME280;48695;53.480;-6.300;2024-02-26T02:13:35;100652.78;;;6.14;68.84
61537;BME280;48695;53.480;-6.300;2024-02-26T02:16:00;100658.84;;;6.11;69.13
61537;BME280;48695;53.480;-6.300;2024-02-26T02:18:26;100660.56;;;6.08;69.20
61537;BME280;48695;53.480;-6.300;2024-02-26T02:20:53;100661.44;;;6.07;69.20
61537;BME280;48695;53.480;-6.300;2024-02-26T02:23:19;100663.19;;;6.05;69.02
61537;BME280;48695;53.480;-6.300;2024-02-26T02:25:44;100667.50;;;6.03;69.13
61537;BME280;48695;53.480;-6.300;2024-02-26T02:28:10;100668.41;;;5.98;69.43
61537;BME280;48695;53.480;-6.300;2024-02-26T02:30:35;100673.59;;;5.97;69.10
61537;BME280;48695;53.480;-6.300;2024-02-26T02:33:01;100668.41;;;5.95;69.03
61537;BME280;48695;53.480;-6.300;2024-02-26T02:35:27;100679.66;;;5.93;69.34
61537;BME280;48695;53.480;-6.300;2024-02-26T02:37:53;100688.28;;;5.90;69.43
61537;BME280;48695;53.480;-6.300;2024-02-26T02:40:18;100665.91;;;5.69;68.92
61537;BME280;48695;53.480;-6.300;2024-02-26T02:42:44;100700.38;;;5.85;69.07
61537;BME280;48695;53.480;-6.300;2024-02-26T02:45:09;100699.53;;;5.83;69.26
61537;BME280;48695;53.480;-6.300;2024-02-26T02:47:38;100706.44;;;5.83;68.98
61537;BME280;48695;53.480;-6.300;2024-02-26T02:50:04;100719.41;;;5.80;69.21
61537;BME280;48695;53.480;-6.300;2024-02-26T02:52:29;100726.31;;;5.78;69.44
61537;BME280;48695;53.480;-6.300;2024-02-26T02:54:55;100726.34;;;5.75;69.32
61537;BME280;48695;53.480;-6.300;2024-02-26T02:57:20;100739.28;;;5.76;69.46
61537;BME280;48695;53.480;-6.300;2024-02-26T02:59:46;100721.19;;;5.64;70.02
61537;BME280;48695;53.480;-6.300;2024-02-26T03:02:11;100740.16;;;5.70;69.62
61537;BME280;48695;53.480;-6.300;2024-02-26T03:04:37;100747.06;;;5.71;69.32
61537;BME280;48695;53.480;-6.300;2024-02-26T03:07:02;100753.13;;;5.69;69.44
61537;BME280;48695;53.480;-6.300;2024-02-26T03:09:28;100760.03;;;5.67;69.63
61537;BME280;48695;53.480;-6.300;2024-02-26T03:11:54;100762.63;;;5.65;69.40
61537;BME280;48695;53.480;-6.300;2024-02-26T03:14:19;100765.22;;;5.64;69.59
61537;BME280;48695;53.480;-6.300;2024-02-26T03:16:44;100775.59;;;5.61;69.72
61537;BME280;48695;53.480;-6.300;2024-02-26T03:19:10;100774.72;;;5.60;70.06
61537;BME280;48695;53.480;-6.300;2024-02-26T03:21:35;100778.19;;;5.58;69.88
61537;BME280;48695;53.480;-6.300;2024-02-26T03:24:01;100769.53;;;5.56;70.01
61537;BME280;48695;53.480;-6.300;2024-02-26T03:26:26;100779.91;;;5.54;69.90
61537;BME280;48695;53.480;-6.300;2024-02-26T03:28:51;100785.94;;;5.52;69.61
61537;BME280;48695;53.480;-6.300;2024-02-26T03:31:17;100782.50;;;5.50;69.84
61537;BME280;48695;53.480;-6.300;2024-02-26T03:33:42;100782.50;;;5.46;69.74
61537;BME280;48695;53.480;-6.300;2024-02-26T03:36:08;100793.75;;;5.44;69.86
61537;BME280;48695;53.480;-6.300;2024-02-26T03:38:33;100785.97;;;5.30;69.61
61537;BME280;48695;53.480;-6.300;2024-02-26T03:40:59;100789.41;;;5.26;69.39
61537;BME280;48695;53.480;-6.300;2024-02-26T03:43:24;100824.81;;;5.35;69.76
61537;BME280;48695;53.480;-6.300;2024-02-26T03:45:50;100825.69;;;5.32;69.66
61537;BME280;48695;53.480;-6.300;2024-02-26T03:48:15;100826.53;;;5.28;69.50
61537;BME280;48695;53.480;-6.300;2024-02-26T03:50:41;100845.53;;;5.27;69.75
61537;BME280;48695;53.480;-6.300;2024-02-26T03:53:06;100853.28;;;5.24;69.81
61537;BME280;48695;53.480;-6.300;2024-02-26T03:55:34;100854.13;;;5.25;68.76
61537;BME280;48695;53.480;-6.300;2024-02-26T03:57:59;100855.84;;;5.21;69.67
61537;BME280;48695;53.480;-6.300;2024-02-26T04:00:24;100856.69;;;5.17;69.65
61537;BME280;48695;53.480;-6.300;2024-02-26T04:02:51;100847.19;;;5.07;70.15
61537;BME280;48695;53.480;-6.300;2024-02-26T04:05:16;100863.59;;;5.15;69.96
61537;BME280;48695;53.480;-6.300;2024-02-26T04:07:42;100872.25;;;5.14;69.89
61537;BME280;48695;53.480;-6.300;2024-02-26T04:10:11;100872.25;;;5.14;69.86
61537;BME280;48695;53.480;-6.300;2024-02-26T04:12:40;100888.63;;;5.13;69.93
61537;BME280;48695;53.480;-6.300;2024-02-26T04:15:09;100888.63;;;5.08;70.21
61537;BME280;48695;53.480;-6.300;2024-02-26T04:17:36;100890.34;;;5.09;70.12
61537;BME280;48695;53.480;-6.300;2024-02-26T04:20:01;100875.63;;;4.96;69.85
61537;BME280;48695;53.480;-6.300;2024-02-26T04:22:27;100901.53;;;5.07;70.04
61537;BME280;48695;53.480;-6.300;2024-02-26T04:24:52;100906.72;;;5.07;70.27
61537;BME280;48695;53.480;-6.300;2024-02-26T04:27:18;100911.88;;;5.01;70.07
61537;BME280;48695;53.480;-6.300;2024-02-26T04:29:43;100924.84;;;5.04;70.19
61537;BME280;48695;53.480;-6.300;2024-02-26T04:32:09;100931.75;;;5.03;70.04
61537;BME280;48695;53.480;-6.300;2024-02-26T04:34:34;100944.66;;;5.02;70.11
61537;BME280;48695;53.480;-6.300;2024-02-26T04:37:00;100944.66;;;5.00;70.15
61537;BME280;48695;53.480;-6.300;2024-02-26T04:39:25;100947.25;;;4.97;70.25
61537;BME280;48695;53.480;-6.300;2024-02-26T04:41:51;100952.44;;;4.97;70.60
61537;BME280;48695;53.480;-6.300;2024-02-26T04:44:16;100955.84;;;4.96;70.01
61537;BME280;48695;53.480;-6.300;2024-02-26T04:46:42;100955.00;;;4.92;70.17
61537;BME280;48695;53.480;-6.300;2024-02-26T04:49:07;100961.03;;;4.93;70.06
61537;BME280;48695;53.480;-6.300;2024-02-26T04:51:32;100963.59;;;4.91;70.45
61537;BME280;48695;53.480;-6.300;2024-02-26T04:53:58;100972.22;;;4.90;70.31
61537;BME280;48695;53.480;-6.300;2024-02-26T04:56:24;100973.94;;;4.88;70.49
61537;BME280;48695;53.480;-6.300;2024-02-26T04:58:50;100986.03;;;4.89;70.21
61537;BME280;48695;53.480;-6.300;2024-02-26T05:01:16;100991.19;;;4.89;70.54
61537;BME280;48695;53.480;-6.300;2024-02-26T05:03:42;100998.09;;;4.87;70.31
61537;BME280;48695;53.480;-6.300;2024-02-26T05:06:08;100978.19;;;4.74;70.48
61537;BME280;48695;53.480;-6.300;2024-02-26T05:08:34;100979.91;;;4.75;70.47
61537;BME280;48695;53.480;-6.300;2024-02-26T05:11:01;100991.97;;;4.76;70.22
61537;BME280;48695;53.480;-6.300;2024-02-26T05:13:28;100999.78;;;4.79;70.33
61537;BME280;48695;53.480;-6.300;2024-02-26T05:15:53;101020.50;;;4.85;70.40
61537;BME280;48695;53.480;-6.300;2024-02-26T05:18:19;101007.50;;;4.76;70.15
61537;BME280;48695;53.480;-6.300;2024-02-26T05:20:44;101027.41;;;4.82;70.19
61537;BME280;48695;53.480;-6.300;2024-02-26T05:23:10;101040.31;;;4.80;70.27
61537;BME280;48695;53.480;-6.300;2024-02-26T05:25:35;101048.94;;;4.79;70.33
61537;BME280;48695;53.480;-6.300;2024-02-26T05:28:01;101046.31;;;4.76;70.59
61537;BME280;48695;53.480;-6.300;2024-02-26T05:30:26;101047.16;;;4.75;70.66
61537;BME280;48695;53.480;-6.300;2024-02-26T05:32:53;101054.06;;;4.72;70.56
61537;BME280;48695;53.480;-6.300;2024-02-26T05:35:18;101070.44;;;4.72;70.98
61537;BME280;48695;53.480;-6.300;2024-02-26T05:37:44;101077.31;;;4.70;70.59
61537;BME280;48695;53.480;-6.300;2024-02-26T05:40:10;101078.19;;;4.69;70.70
61537;BME280;48695;53.480;-6.300;2024-02-26T05:42:35;101088.53;;;4.67;70.83
61537;BME280;48695;53.480;-6.300;2024-02-26T05:45:01;101089.34;;;4.65;70.74
61537;BME280;48695;53.480;-6.300;2024-02-26T05:47:33;101097.09;;;4.63;71.08
61537;BME280;48695;53.480;-6.300;2024-02-26T05:49:59;101097.94;;;4.61;71.04
61537;BME280;48695;53.480;-6.300;2024-02-26T05:52:26;101088.34;;;4.48;70.75
61537;BME280;48695;53.480;-6.300;2024-02-26T05:54:51;101081.47;;;4.50;71.07
61537;BME280;48695;53.480;-6.300;2024-02-26T05:57:17;101103.91;;;4.54;71.22
61537;BME280;48695;53.480;-6.300;2024-02-26T05:59:43;101098.72;;;4.51;70.68
61537;BME280;48695;53.480;-6.300;2024-02-26T06:02:09;101098.72;;;4.49;70.75
61537;BME280;48695;53.480;-6.300;2024-02-26T06:04:34;101094.38;;;4.47;71.10
61537;BME280;48695;53.480;-6.300;2024-02-26T06:07:00;101099.56;;;4.47;71.15
61537;BME280;48695;53.480;-6.300;2024-02-26T06:09:25;101102.97;;;4.46;70.73
61537;BME280;48695;53.480;-6.300;2024-02-26T06:11:50;101109.91;;;4.47;70.75
61537;BME280;48695;53.480;-6.300;2024-02-26T06:14:16;101121.97;;;4.48;71.08
61537;BME280;48695;53.480;-6.300;2024-02-26T06:16:44;101118.47;;;4.42;70.95
61537;BME280;48695;53.480;-6.300;2024-02-26T06:19:09;101128.88;;;4.49;70.71
61537;BME280;48695;53.480;-6.300;2024-02-26T06:21:35;101139.22;;;4.50;70.67
61537;BME280;48695;53.480;-6.300;2024-02-26T06:24:01;101151.28;;;4.50;70.98
61537;BME280;48695;53.480;-6.300;2024-02-26T06:26:26;101142.66;;;4.51;70.78
61537;BME280;48695;53.480;-6.300;2024-02-26T06:28:54;101142.66;;;4.51;71.33
61537;BME280;48695;53.480;-6.300;2024-02-26T06:31:20;101140.94;;;4.50;71.28
61537;BME280;48695;53.480;-6.300;2024-02-26T06:33:47;101158.19;;;4.51;71.40
61537;BME280;48695;53.480;-6.300;2024-02-26T06:36:12;101149.56;;;4.47;71.36
61537;BME280;48695;53.480;-6.300;2024-02-26T06:38:38;101156.47;;;4.50;71.31
61537;BME280;48695;53.480;-6.300;2024-02-26T06:41:03;101169.34;;;4.45;71.34
61537;BME280;48695;53.480;-6.300;2024-02-26T06:43:29;101168.47;;;4.45;71.23
61537;BME280;48695;53.480;-6.300;2024-02-26T06:45:54;101174.47;;;4.40;71.45
61537;BME280;48695;53.480;-6.300;2024-02-26T06:48:19;101177.91;;;4.36;71.57
61537;BME280;48695;53.480;-6.300;2024-02-26T06:50:45;101183.94;;;4.38;71.22
61537;BME280;48695;53.480;-6.300;2024-02-26T06:53:10;101188.19;;;4.35;71.45
61537;BME280;48695;53.480;-6.300;2024-02-26T06:55:36;101189.91;;;4.33;71.42
61537;BME280;48695;53.480;-6.300;2024-02-26T06:58:05;101196.78;;;4.31;71.54
61537;BME280;48695;53.480;-6.300;2024-02-26T07:00:30;101191.53;;;4.25;71.78
61537;BME280;48695;53.480;-6.300;2024-02-26T07:02:56;101197.56;;;4.25;71.69
61537;BME280;48695;53.480;-6.300;2024-02-26T07:05:21;101190.66;;;4.21;71.75
61537;BME280;48695;53.480;-6.300;2024-02-26T07:07:47;101187.09;;;4.11;71.51
61537;BME280;48695;53.480;-6.300;2024-02-26T07:10:12;101200.09;;;4.16;71.59
61537;BME280;48695;53.480;-6.300;2024-02-26T07:12:38;101206.06;;;4.12;71.73
61537;BME280;48695;53.480;-6.300;2024-02-26T07:15:04;101206.00;;;4.09;71.83
61537;BME280;48695;53.480;-6.300;2024-02-26T07:17:32;101214.56;;;4.05;71.71
61537;BME280;48695;53.480;-6.300;2024-02-26T07:19:59;101220.59;;;4.04;71.80
61537;BME280;48695;53.480;-6.300;2024-02-26T07:22:24;101220.59;;;4.02;71.86
61537;BME280;48695;53.480;-6.300;2024-02-26T07:24:50;101218.00;;;4.01;72.00
61537;BME280;48695;53.480;-6.300;2024-02-26T07:27:16;101228.28;;;3.98;72.21
61537;BME280;48695;53.480;-6.300;2024-02-26T07:29:43;101230.00;;;3.96;72.22
61537;BME280;48695;53.480;-6.300;2024-02-26T07:32:08;101209.94;;;3.78;71.98
61537;BME280;48695;53.480;-6.300;2024-02-26T07:34:34;101217.66;;;3.76;72.08
61537;BME280;48695;53.480;-6.300;2024-02-26T07:36:59;101251.41;;;3.90;72.22
61537;BME280;48695;53.480;-6.300;2024-02-26T07:39:24;101253.97;;;3.87;71.84
61537;BME280;48695;53.480;-6.300;2024-02-26T07:41:50;101253.06;;;3.85;72.19
61537;BME280;48695;53.480;-6.300;2024-02-26T07:44:18;101267.72;;;3.84;71.84
61537;BME280;48695;53.480;-6.300;2024-02-26T07:46:43;101269.41;;;3.82;72.15
61537;BME280;48695;53.480;-6.300;2024-02-26T07:49:09;101267.63;;;3.78;71.80
61537;BME280;48695;53.480;-6.300;2024-02-26T07:51:34;101276.28;;;3.80;72.07
61537;BME280;48695;53.480;-6.300;2024-02-26T07:54:00;101248.44;;;3.61;72.03
61537;BME280;48695;53.480;-6.300;2024-02-26T07:56:25;101284.03;;;3.82;72.19
61537;BME280;48695;53.480;-6.300;2024-02-26T07:58:51;101289.22;;;3.82;72.12
61537;BME280;48695;53.480;-6.300;2024-02-26T08:01:17;101283.97;;;3.76;72.43
61537;BME280;48695;53.480;-6.300;2024-02-26T08:03:42;101283.09;;;3.75;72.06
61537;BME280;48695;53.480;-6.300;2024-02-26T08:06:08;101291.78;;;3.80;72.06
61537;BME280;48695;53.480;-6.300;2024-02-26T08:08:34;101299.56;;;3.83;71.89
61537;BME280;48695;53.480;-6.300;2024-02-26T08:10:59;101305.56;;;3.82;71.92
61537;BME280;48695;53.480;-6.300;2024-02-26T08:13:25;101285.56;;;3.69;71.99
61537;BME280;48695;53.480;-6.300;2024-02-26T08:15:51;101316.84;;;3.87;72.36
61537;BME280;48695;53.480;-6.300;2024-02-26T08:18:17;101326.31;;;3.88;72.44
61537;BME280;48695;53.480;-6.300;2024-02-26T08:20:42;101323.75;;;3.90;72.27
61537;BME280;48695;53.480;-6.300;2024-02-26T08:23:08;101329.84;;;3.94;72.01
61537;BME280;48695;53.480;-6.300;2024-02-26T08:25:33;101331.63;;;3.98;72.12
61537;BME280;48695;53.480;-6.300;2024-02-26T08:27:59;101338.59;;;4.02;71.96
61537;BME280;48695;53.480;-6.300;2024-02-26T08:30:24;101342.09;;;4.07;71.93
61537;BME280;48695;53.480;-6.300;2024-02-26T08:32:49;101339.66;;;4.16;71.96
61537;BME280;48695;53.480;-6.300;2024-02-26T08:35:15;101319.84;;;4.16;71.90
61537;BME280;48695;53.480;-6.300;2024-02-26T08:37:44;101347.81;;;4.47;71.96
61537;BME280;48695;53.480;-6.300;2024-02-26T08:40:10;101352.38;;;4.67;71.97
61537;BME280;48695;53.480;-6.300;2024-02-26T08:42:35;101362.97;;;4.90;71.98
61537;BME280;48695;53.480;-6.300;2024-02-26T08:45:02;101374.47;;;5.14;72.10
61537;BME280;48695;53.480;-6.300;2024-02-26T08:47:28;101372.06;;;5.37;72.07
61537;BME280;48695;53.480;-6.300;2024-02-26T08:49:53;101383.53;;;5.60;71.93
61537;BME280;48695;53.480;-6.300;2024-02-26T08:52:19;101392.31;;;5.82;71.61
61537;BME280;48695;53.480;-6.300;2024-02-26T08:54:44;101396.00;;;6.06;71.61
61537;BME280;48695;53.480;-6.300;2024-02-26T08:57:10;101401.31;;;6.27;71.20
61537;BME280;48695;53.480;-6.300;2024-02-26T08:59:35;101412.72;;;6.49;71.46
61537;BME280;48695;53.480;-6.300;2024-02-26T09:02:01;101418.88;;;6.71;71.01
61537;BME280;48695;53.480;-6.300;2024-02-26T09:04:26;101420.69;;;6.93;70.52
61537;BME280;48695;53.480;-6.300;2024-02-26T09:06:52;101417.31;;;7.16;70.70
61537;BME280;48695;53.480;-6.300;2024-02-26T09:09:18;101421.69;;;7.38;70.45
61537;BME280;48695;53.480;-6.300;2024-02-26T09:11:43;101413.91;;;7.60;69.93
61537;BME280;48695;53.480;-6.300;2024-02-26T09:14:09;101413.94;;;7.81;70.04
61537;BME280;48695;53.480;-6.300;2024-02-26T09:16:34;101417.41;;;8.01;69.46
61537;BME280;48695;53.480;-6.300;2024-02-26T09:19:00;101412.16;;;8.24;69.92
61537;BME280;48695;53.480;-6.300;2024-02-26T09:21:25;101417.34;;;8.44;69.33
61537;BME280;48695;53.480;-6.300;2024-02-26T09:23:51;101413.00;;;8.58;68.74
61537;BME280;48695;53.480;-6.300;2024-02-26T09:26:17;101426.81;;;8.82;68.43
61537;BME280;48695;53.480;-6.300;2024-02-26T09:28:43;101419.78;;;8.99;68.50
61537;BME280;48695;53.480;-6.300;2024-02-26T09:31:09;101424.91;;;9.18;68.06
61537;BME280;48695;53.480;-6.300;2024-02-26T09:33:35;101436.09;;;9.35;67.98
61537;BME280;48695;53.480;-6.300;2024-02-26T09:36:00;101420.41;;;9.41;67.88
61537;BME280;48695;53.480;-6.300;2024-02-26T09:38:26;101446.31;;;9.66;67.53
61537;BME280;48695;53.480;-6.300;2024-02-26T09:40:52;101451.47;;;9.75;67.06
61537;BME280;48695;53.480;-6.300;2024-02-26T09:43:21;101457.47;;;9.89;67.14
61537;BME280;48695;53.480;-6.300;2024-02-26T09:45:50;101434.00;;;9.86;66.98
61537;BME280;48695;53.480;-6.300;2024-02-26T09:48:17;101471.19;;;10.08;66.66
61537;BME280;48695;53.480;-6.300;2024-02-26T09:50:43;101471.97;;;10.21;66.21
61537;BME280;48695;53.480;-6.300;2024-02-26T09:53:10;101456.28;;;10.27;66.19
61537;BME280;48695;53.480;-6.300;2024-02-26T09:55:36;101462.16;;;10.50;65.97
61537;BME280;48695;53.480;-6.300;2024-02-26T09:58:04;101468.03;;;10.71;65.81
61537;BME280;48695;53.480;-6.300;2024-02-26T10:00:31;101466.13;;;10.85;65.19
61537;BME280;48695;53.480;-6.300;2024-02-26T10:03:03;101458.91;;;11.05;65.15
61537;BME280;48695;53.480;-6.300;2024-02-26T10:05:31;101465.75;;;11.15;64.91
61537;BME280;48695;53.480;-6.300;2024-02-26T10:07:57;101439.56;;;11.18;64.60
61537;BME280;48695;53.480;-6.300;2024-02-26T10:10:23;101428.19;;;11.23;63.78
61537;BME280;48695;53.480;-6.300;2024-02-26T10:12:49;101446.19;;;11.44;64.24
61537;BME280;48695;53.480;-6.300;2024-02-26T10:15:15;101441.69;;;11.54;63.76
61537;BME280;48695;53.480;-6.300;2024-02-26T10:17:41;101439.75;;;11.65;63.62
61537;BME280;48695;53.480;-6.300;2024-02-26T10:20:14;101442.06;;;11.88;64.34
61537;BME280;48695;53.480;-6.300;2024-02-26T10:22:41;101443.56;;;12.01;63.28
61537;BME280;48695;53.480;-6.300;2024-02-26T10:25:07;101446.66;;;12.25;62.58
61537;BME280;48695;53.480;-6.300;2024-02-26T10:27:34;101447.94;;;12.50;62.41
61537;BME280;48695;53.480;-6.300;2024-02-26T10:30:20;101440.41;;;12.80;62.74
61537;BME280;48695;53.480;-6.300;2024-02-26T10:32:47;101440.72;;;13.06;61.45
61537;BME280;48695;53.480;-6.300;2024-02-26T10:35:14;101423.66;;;13.29;61.52
61537;BME280;48695;53.480;-6.300;2024-02-26T10:37:40;101433.53;;;13.56;60.62
61537;BME280;48695;53.480;-6.300;2024-02-26T10:40:10;101441.34;;;13.95;60.95
61537;BME280;48695;53.480;-6.300;2024-02-26T10:42:36;101440.81;;;14.16;59.59
61537;BME280;48695;53.480;-6.300;2024-02-26T10:45:01;101447.94;;;14.44;59.41
61537;BME280;48695;53.480;-6.300;2024-02-26T10:47:28;101448.09;;;14.72;59.12
61537;BME280;48695;53.480;-6.300;2024-02-26T10:49:54;101441.16;;;15.00;58.30
61537;BME280;48695;53.480;-6.300;2024-02-26T10:52:22;101447.97;;;15.36;58.45
61537;BME280;48695;53.480;-6.300;2024-02-26T10:54:56;101449.81;;;15.62;57.73
61537;BME280;48695;53.480;-6.300;2024-02-26T10:57:24;101458.72;;;15.86;57.03
61537;BME280;48695;53.480;-6.300;2024-02-26T10:59:51;101466.72;;;16.09;56.74
61537;BME280;48695;53.480;-6.300;2024-02-26T11:02:17;101475.25;;;16.42;62.46
61537;BME280;48695;53.480;-6.300;2024-02-26T11:04:42;101480.53;;;16.42;56.38
61537;BME280;48695;53.480;-6.300;2024-02-26T11:07:09;101478.25;;;16.58;55.96
61537;BME280;48695;53.480;-6.300;2024-02-26T11:09:35;101476.69;;;16.77;56.01
61537;BME280;48695;53.480;-6.300;2024-02-26T11:12:08;101489.66;;;17.07;53.97
61537;BME280;48695;53.480;-6.300;2024-02-26T11:14:36;101491.47;;;17.30;54.79
61537;BME280;48695;53.480;-6.300;2024-02-26T11:17:04;101490.69;;;17.50;53.56
61537;BME280;48695;53.480;-6.300;2024-02-26T11:19:35;101500.63;;;17.88;54.39
61537;BME280;48695;53.480;-6.300;2024-02-26T11:22:00;101498.28;;;18.03;52.15
61537;BME280;48695;53.480;-6.300;2024-02-26T11:24:26;101508.78;;;18.26;51.62
61537;BME280;48695;53.480;-6.300;2024-02-26T11:26:55;101500.03;;;18.45;51.72
61537;BME280;48695;53.480;-6.300;2024-02-26T11:29:34;101502.66;;;18.66;51.64
61537;BME280;48695;53.480;-6.300;2024-02-26T11:32:00;101506.75;;;18.74;49.45
61537;BME280;48695;53.480;-6.300;2024-02-26T11:34:27;101514.09;;;18.87;48.22
61537;BME280;48695;53.480;-6.300;2024-02-26T11:36:53;101524.13;;;19.00;48.25
61537;BME280;48695;53.480;-6.300;2024-02-26T11:39:19;101538.81;;;19.07;49.07
61537;BME280;48695;53.480;-6.300;2024-02-26T11:41:44;101544.50;;;19.18;47.99
61537;BME280;48695;53.480;-6.300;2024-02-26T11:44:10;101549.38;;;19.27;47.97
61537;BME280;48695;53.480;-6.300;2024-02-26T11:46:40;101567.06;;;19.45;49.90
61537;BME280;48695;53.480;-6.300;2024-02-26T11:51:52;101565.47;;;19.62;46.44
61537;BME280;48695;53.480;-6.300;2024-02-26T11:54:39;101563.19;;;19.73;51.10
61537;BME280;48695;53.480;-6.300;2024-02-26T11:57:29;101573.47;;;19.79;49.92
61537;BME280;48695;53.480;-6.300;2024-02-26T11:59:56;101570.06;;;19.77;45.86
61537;BME280;48695;53.480;-6.300;2024-02-26T12:02:44;101572.44;;;20.01;48.59
61537;BME280;48695;53.480;-6.300;2024-02-26T12:05:21;101573.94;;;20.06;47.79
61537;BME280;48695;53.480;-6.300;2024-02-26T12:08:09;101572.19;;;20.24;49.68
61537;BME280;48695;53.480;-6.300;2024-02-26T12:10:36;101574.53;;;20.30;45.51
61537;BME280;48695;53.480;-6.300;2024-02-26T12:13:16;101575.59;;;20.62;47.56
61537;BME280;48695;53.480;-6.300;2024-02-26T12:15:43;101584.06;;;20.70;43.47
61537;BME280;48695;53.480;-6.300;2024-02-26T12:18:09;101583.94;;;21.07;52.92
61537;BME280;48695;53.480;-6.300;2024-02-26T12:20:36;101590.19;;;21.06;41.85
61537;BME280;48695;53.480;-6.300;2024-02-26T12:23:03;101591.75;;;21.10;42.02
61537;BME280;48695;53.480;-6.300;2024-02-26T12:25:32;101592.13;;;21.19;42.65
61537;BME280;48695;53.480;-6.300;2024-02-26T12:27:58;101590.50;;;21.34;42.41
61537;BME280;48695;53.480;-6.300;2024-02-26T12:30:25;101592.38;;;21.48;42.60
61537;BME280;48695;53.480;-6.300;2024-02-26T12:32:56;101587.69;;;21.69;43.13
61537;BME280;48695;53.480;-6.300;2024-02-26T12:35:23;101579.31;;;21.92;40.61
61537;BME280;48695;53.480;-6.300;2024-02-26T12:37:49;101577.16;;;22.15;39.33
61537;BME280;48695;53.480;-6.300;2024-02-26T12:40:17;101591.31;;;22.31;38.96
61537;BME280;48695;53.480;-6.300;2024-02-26T12:42:42;101583.16;;;22.34;40.74
61537;BME280;48695;53.480;-6.300;2024-02-26T12:45:12;101588.63;;;22.47;42.67
61537;BME280;48695;53.480;-6.300;2024-02-26T12:50:08;101590.72;;;22.72;39.18